Time;durP1;ratioP1;P1;durP2;ratioP2;P2;SDS_P1;SDS_P2;PMS_P1;PMS_P2;Temp;Humidity;BMP_temperature;BMP_pressure;BME280_temperature;BME280_humidity;BME280_pressure;Samples;Min_cycle;Max_cycle;Signal;HPM_P1;HPM_P2
2022/05/08 00:01:22;;;;;;;;;;;21.40;49.00;;;;;;486920;243;1165;-76
2022/05/08 00:03:23;;;;;;;;;;;21.50;48.70;;;;;;486936;245;2171;-76
2022/05/08 00:05:25;;;;;;;;;;;21.50;48.70;;;;;;486918;245;1106;-76
2022/05/08 00:07:26;;;;;;;;;;;21.40;48.90;;;;;;486844;245;949;-76
2022/05/08 00:09:27;;;;;;;;;;;21.50;48.60;;;;;;486920;245;1101;-76
2022/05/08 00:11:29;;;;;;;;;;;21.40;49.10;;;;;;487052;245;1112;-76
2022/05/08 00:13:31;;;;;;;;;;;21.30;49.20;;;;;;486926;245;1195;-76
2022/05/08 00:15:32;;;;;;;;;;;21.30;49.20;;;;;;487105;245;1417;-76
2022/05/08 00:17:34;;;;;;;;;;;21.40;49.10;;;;;;486933;245;1077;-76
2022/05/08 00:19:36;;;;;;;;;;;21.30;49.20;;;;;;486954;245;982;-76
2022/05/08 00:21:39;;;;;;;;;;;21.30;49.10;;;;;;486864;245;1167;-76
2022/05/08 00:23:38;;;;;;;;;;;21.30;49.30;;;;;;487096;245;2193;-76
2022/05/08 00:25:40;;;;;;;;;;;21.30;49.20;;;;;;486913;245;955;-76
2022/05/08 00:27:41;;;;;;;;;;;21.30;49.30;;;;;;486963;245;1062;-76
2022/05/08 00:29:42;;;;;;;;;;;21.30;49.40;;;;;;486906;245;963;-76
2022/05/08 00:31:44;;;;;;;;;;;21.30;49.30;;;;;;486840;245;1204;-76
2022/05/08 00:33:45;;;;;;;;;;;21.30;49.20;;;;;;486980;245;1280;-76
2022/05/08 00:35:46;;;;;;;;;;;21.30;49.20;;;;;;486943;245;1090;-76
2022/05/08 00:37:48;;;;;;;;;;;21.30;49.20;;;;;;486941;245;1158;-76
2022/05/08 00:39:49;;;;;;;;;;;21.30;49.30;;;;;;487054;245;1134;-76
2022/05/08 00:41:50;;;;;;;;;;;21.30;49.20;;;;;;487051;245;1164;-76
2022/05/08 00:43:52;;;;;;;;;;;21.30;49.20;;;;;;486921;245;2119;-75
2022/05/08 00:45:53;;;;;;;;;;;21.20;49.60;;;;;;486928;245;1232;-76
2022/05/08 00:47:56;;;;;;;;;;;21.30;49.50;;;;;;486948;245;1182;-76
2022/05/08 00:49:56;;;;;;;;;;;21.30;49.40;;;;;;486845;245;1239;-76
2022/05/08 00:51:57;;;;;;;;;;;21.20;49.60;;;;;;487091;245;1195;-76
2022/05/08 00:53:58;;;;;;;;;;;21.20;49.50;;;;;;486981;245;1103;-76
2022/05/08 00:56:00;;;;;;;;;;;21.30;49.50;;;;;;487107;245;1164;-76
2022/05/08 00:58:02;;;;;;;;;;;21.20;49.60;;;;;;486922;245;1079;-76
2022/05/08 01:00:03;;;;;;;;;;;21.20;49.60;;;;;;486859;245;1408;-76
2022/05/08 01:02:04;;;;;;;;;;;21.10;49.90;;;;;;486720;245;1240;-76
2022/05/08 01:04:05;;;;;;;;;;;21.20;49.70;;;;;;486853;245;2194;-76
2022/05/08 01:06:07;;;;;;;;;;;21.10;49.70;;;;;;486889;245;1277;-76
2022/05/08 01:08:08;;;;;;;;;;;21.20;49.70;;;;;;486883;245;1138;-76
2022/05/08 01:10:10;;;;;;;;;;;21.20;49.60;;;;;;487030;245;1120;-76
2022/05/08 01:12:11;;;;;;;;;;;21.20;49.60;;;;;;486868;245;1312;-76
2022/05/08 01:14:12;;;;;;;;;;;21.30;49.40;;;;;;486870;245;1202;-76
2022/05/08 01:16:14;;;;;;;;;;;21.30;49.50;;;;;;486947;245;1463;-76
2022/05/08 01:18:15;;;;;;;;;;;21.20;49.40;;;;;;486822;245;1232;-76
2022/05/08 01:20:20;;;;;;;;;;;21.30;49.30;;;;;;486903;245;1111;-76
2022/05/08 01:22:23;;;;;;;;;;;21.30;49.50;;;;;;487012;245;2135;-76
2022/05/08 01:24:28;;;;;;;;;;;21.30;49.40;;;;;;487141;245;1472;-76
2022/05/08 01:26:29;;;;;;;;;;;21.40;49.30;;;;;;486937;245;1204;-76
2022/05/08 01:28:31;;;;;;;;;;;21.30;49.30;;;;;;486984;245;1101;-76
2022/05/08 01:30:32;;;;;;;;;;;21.30;49.40;;;;;;486898;245;1167;-76
2022/05/08 01:32:34;;;;;;;;;;;21.40;49.30;;;;;;486857;245;1104;-76
2022/05/08 01:34:35;;;;;;;;;;;21.30;49.50;;;;;;486877;245;1036;-76
2022/05/08 01:36:36;;;;;;;;;;;21.20;49.40;;;;;;486817;245;1062;-76
2022/05/08 01:38:38;;;;;;;;;;;21.20;49.40;;;;;;486912;245;1126;-76
2022/05/08 01:40:39;;;;;;;;;;;21.40;49.30;;;;;;487095;245;1102;-76
2022/05/08 01:42:40;;;;;;;;;;;21.30;49.30;;;;;;486983;245;2181;-76
2022/05/08 01:44:42;;;;;;;;;;;21.30;49.50;;;;;;486915;245;1140;-76
2022/05/08 01:46:43;;;;;;;;;;;21.20;49.50;;;;;;486842;245;1154;-76
2022/05/08 01:48:44;;;;;;;;;;;21.30;49.40;;;;;;486879;245;1077;-76
2022/05/08 01:50:46;;;;;;;;;;;21.30;49.20;;;;;;487065;245;1069;-76
2022/05/08 01:52:47;;;;;;;;;;;21.30;49.50;;;;;;486898;245;1142;-76
2022/05/08 01:54:48;;;;;;;;;;;21.20;49.40;;;;;;486899;245;1306;-76
2022/05/08 01:56:50;;;;;;;;;;;21.30;49.20;;;;;;486897;245;1241;-76
2022/05/08 01:58:52;;;;;;;;;;;21.40;49.20;;;;;;486940;245;963;-76
2022/05/08 02:00:53;;;;;;;;;;;21.30;49.10;;;;;;487053;245;1460;-76
2022/05/08 02:02:54;;;;;;;;;;;21.40;49.10;;;;;;486993;245;2198;-76
2022/05/08 02:04:55;;;;;;;;;;;21.30;49.30;;;;;;486999;245;1085;-76
2022/05/08 02:06:57;;;;;;;;;;;21.20;49.40;;;;;;486925;245;1129;-76
2022/05/08 02:08:58;;;;;;;;;;;21.20;49.50;;;;;;486988;245;1085;-76
2022/05/08 02:10:59;;;;;;;;;;;21.20;49.70;;;;;;486977;245;1222;-76
2022/05/08 02:13:01;;;;;;;;;;;21.30;49.50;;;;;;486892;245;1114;-76
2022/05/08 02:15:02;;;;;;;;;;;21.20;49.50;;;;;;486983;245;1023;-76
2022/05/08 02:17:03;;;;;;;;;;;21.20;49.60;;;;;;487011;245;1289;-76
2022/05/08 02:19:05;;;;;;;;;;;21.30;49.30;;;;;;487021;245;1048;-76
2022/05/08 02:21:06;;;;;;;;;;;21.30;49.20;;;;;;486989;245;1043;-76
2022/05/08 02:23:07;;;;;;;;;;;21.20;49.40;;;;;;487118;245;2112;-76
2022/05/08 02:25:09;;;;;;;;;;;21.30;49.30;;;;;;486969;245;978;-76
2022/05/08 02:27:10;;;;;;;;;;;21.30;49.20;;;;;;486931;245;1063;-76
2022/05/08 02:29:11;;;;;;;;;;;21.20;49.50;;;;;;487009;245;1086;-76
2022/05/08 02:31:13;;;;;;;;;;;21.30;49.40;;;;;;486913;245;1320;-76
2022/05/08 02:33:14;;;;;;;;;;;21.30;49.30;;;;;;486930;245;1182;-76
2022/05/08 02:35:17;;;;;;;;;;;21.30;49.30;;;;;;487007;245;950;-76
2022/05/08 02:37:17;;;;;;;;;;;21.30;49.40;;;;;;487124;245;1448;-76
2022/05/08 02:39:18;;;;;;;;;;;21.30;49.30;;;;;;486937;245;961;-76
2022/05/08 02:41:19;;;;;;;;;;;21.30;49.20;;;;;;486914;245;981;-76
2022/05/08 02:43:21;;;;;;;;;;;21.30;49.30;;;;;;487001;245;2178;-76
2022/05/08 02:45:23;;;;;;;;;;;21.20;49.30;;;;;;486999;245;993;-76
2022/05/08 02:47:24;;;;;;;;;;;21.30;49.30;;;;;;486934;245;1263;-76
2022/05/08 02:49:26;;;;;;;;;;;21.30;49.30;;;;;;486973;245;1036;-76
2022/05/08 02:51:26;;;;;;;;;;;21.30;49.20;;;;;;487005;245;1016;-76
2022/05/08 02:53:28;;;;;;;;;;;21.30;49.20;;;;;;487071;245;1161;-76
2022/05/08 03:00:08;;;;;;;;;;;21.40;49.00;;;;;;487000;245;1130;-76
2022/05/08 03:02:09;;;;;;;;;;;21.40;49.20;;;;;;486843;244;1135;-76
2022/05/08 03:04:11;;;;;;;;;;;21.30;49.10;;;;;;486956;245;2199;-76
2022/05/08 03:06:13;;;;;;;;;;;21.40;49.10;;;;;;486903;245;1152;-76
2022/05/08 03:08:15;;;;;;;;;;;21.30;49.00;;;;;;486841;245;2081;-76
2022/05/08 03:10:15;;;;;;;;;;;21.40;49.00;;;;;;487089;245;1195;-76
2022/05/08 03:12:17;;;;;;;;;;;21.40;49.20;;;;;;487071;245;1169;-76
2022/05/08 03:14:20;;;;;;;;;;;21.40;49.10;;;;;;487146;245;1165;-76
2022/05/08 03:16:19;;;;;;;;;;;21.40;49.00;;;;;;486805;245;1626;-76
2022/05/08 03:18:21;;;;;;;;;;;21.40;49.00;;;;;;486935;245;1186;-76
2022/05/08 03:20:22;;;;;;;;;;;21.30;49.10;;;;;;486957;245;1141;-76
2022/05/08 03:22:23;;;;;;;;;;;21.30;49.10;;;;;;486908;245;1188;-76
2022/05/08 03:24:26;;;;;;;;;;;21.40;49.20;;;;;;486925;245;2195;-76
2022/05/08 03:26:28;;;;;;;;;;;21.30;49.30;;;;;;486762;245;1580;-76
2022/05/08 03:28:27;;;;;;;;;;;21.30;49.30;;;;;;486800;245;1342;-76
2022/05/08 03:30:29;;;;;;;;;;;21.30;49.30;;;;;;486907;245;1115;-76
2022/05/08 03:32:31;;;;;;;;;;;21.30;49.10;;;;;;486886;243;1170;-76
2022/05/08 03:34:32;;;;;;;;;;;21.30;49.10;;;;;;486945;245;1073;-76
2022/05/08 03:36:33;;;;;;;;;;;21.50;49.00;;;;;;486891;245;1236;-76
2022/05/08 03:38:35;;;;;;;;;;;21.40;49.10;;;;;;486926;245;1069;-76
2022/05/08 03:40:36;;;;;;;;;;;21.40;49.00;;;;;;486854;245;1124;-76
2022/05/08 03:42:37;;;;;;;;;;;21.40;49.10;;;;;;486992;245;1207;-76
2022/05/08 03:44:39;;;;;;;;;;;21.40;49.00;;;;;;486949;245;2163;-76
2022/05/08 03:46:39;;;;;;;;;;;21.30;49.30;;;;;;486805;245;1389;-76
2022/05/08 03:48:41;;;;;;;;;;;21.40;49.10;;;;;;486972;245;1188;-76
2022/05/08 03:50:42;;;;;;;;;;;21.40;49.00;;;;;;486980;245;1211;-76
2022/05/08 03:52:43;;;;;;;;;;;21.40;49.20;;;;;;486874;245;1192;-76
2022/05/08 03:54:45;;;;;;;;;;;21.30;49.10;;;;;;487018;245;1027;-76
2022/05/08 03:56:47;;;;;;;;;;;21.50;49.10;;;;;;487108;245;1202;-76
2022/05/08 03:58:48;;;;;;;;;;;21.50;49.00;;;;;;486960;245;955;-76
2022/05/08 04:00:49;;;;;;;;;;;21.40;48.90;;;;;;486938;245;1246;-76
2022/05/08 04:02:51;;;;;;;;;;;21.60;48.70;;;;;;487041;245;1161;-76
2022/05/08 04:04:52;;;;;;;;;;;21.50;48.90;;;;;;486890;245;2185;-76
2022/05/08 04:06:53;;;;;;;;;;;21.50;48.90;;;;;;486896;243;1353;-76
2022/05/08 04:08:55;;;;;;;;;;;21.40;49.10;;;;;;487114;245;1088;-76
2022/05/08 04:10:56;;;;;;;;;;;21.40;49.10;;;;;;486896;245;1137;-76
2022/05/08 04:12:58;;;;;;;;;;;21.60;48.80;;;;;;486868;245;1154;-76
2022/05/08 04:14:59;;;;;;;;;;;21.60;48.90;;;;;;487073;245;1101;-76
2022/05/08 04:17:01;;;;;;;;;;;21.50;49.00;;;;;;486972;245;1229;-76
2022/05/08 04:19:02;;;;;;;;;;;21.60;48.90;;;;;;486953;245;1155;-76
2022/05/08 04:21:03;;;;;;;;;;;21.60;48.80;;;;;;486935;245;1234;-76
2022/05/08 04:25:31;;;;;;;;;;;21.60;48.70;;;;;;478666;245;1284;-76
2022/05/08 04:27:32;;;;;;;;;;;21.50;48.90;;;;;;486800;245;1125;-76
2022/05/08 04:29:34;;;;;;;;;;;21.60;48.80;;;;;;486982;245;999;-76
2022/05/08 04:31:35;;;;;;;;;;;21.60;48.70;;;;;;486973;245;1194;-76
2022/05/08 04:33:36;;;;;;;;;;;21.60;48.70;;;;;;486955;245;1147;-76
2022/05/08 04:35:38;;;;;;;;;;;21.50;48.90;;;;;;487106;245;1219;-76
2022/05/08 04:37:39;;;;;;;;;;;21.50;48.80;;;;;;487099;245;1164;-76
2022/05/08 04:39:40;;;;;;;;;;;21.60;48.90;;;;;;486937;245;1218;-76
2022/05/08 04:41:42;;;;;;;;;;;21.60;48.70;;;;;;486999;245;1239;-76
2022/05/08 04:43:43;;;;;;;;;;;21.60;48.60;;;;;;486973;245;2190;-76
2022/05/08 04:45:44;;;;;;;;;;;21.60;48.70;;;;;;487150;245;1285;-76
2022/05/08 04:47:46;;;;;;;;;;;21.50;48.70;;;;;;486934;245;1232;-76
2022/05/08 04:49:48;;;;;;;;;;;21.50;48.70;;;;;;486926;245;1214;-76
2022/05/08 04:51:48;;;;;;;;;;;21.60;48.60;;;;;;486894;245;1297;-76
2022/05/08 04:53:50;;;;;;;;;;;21.60;48.80;;;;;;487025;245;1099;-76
2022/05/08 04:55:51;;;;;;;;;;;21.40;49.00;;;;;;486931;245;1156;-76
2022/05/08 04:57:52;;;;;;;;;;;21.50;48.80;;;;;;486879;245;1178;-76
2022/05/08 04:59:54;;;;;;;;;;;21.50;48.90;;;;;;486929;245;1133;-76
2022/05/08 05:01:57;;;;;;;;;;;21.40;49.10;;;;;;486800;245;1109;-76
2022/05/08 05:03:57;;;;;;;;;;;21.60;48.70;;;;;;486829;245;2202;-76
2022/05/08 05:05:58;;;;;;;;;;;21.50;48.70;;;;;;486862;243;1162;-76
2022/05/08 05:08:00;;;;;;;;;;;21.60;48.80;;;;;;486943;245;1135;-76
2022/05/08 05:10:02;;;;;;;;;;;21.50;49.00;;;;;;487191;245;1084;-76
2022/05/08 05:12:02;;;;;;;;;;;21.50;48.90;;;;;;486909;245;1393;-76
2022/05/08 05:14:04;;;;;;;;;;;21.40;48.80;;;;;;486984;245;1017;-76
2022/05/08 05:16:05;;;;;;;;;;;21.50;48.90;;;;;;486968;245;995;-76
2022/05/08 05:18:07;;;;;;;;;;;21.60;48.80;;;;;;486976;245;979;-76
2022/05/08 05:20:08;;;;;;;;;;;21.50;49.00;;;;;;486986;245;1157;-76
2022/05/08 05:22:09;;;;;;;;;;;21.60;48.90;;;;;;487008;245;1429;-76
2022/05/08 05:24:10;;;;;;;;;;;21.50;48.80;;;;;;486827;245;2182;-76
2022/05/08 05:26:12;;;;;;;;;;;21.60;48.80;;;;;;486889;245;1151;-76
2022/05/08 05:28:13;;;;;;;;;;;21.40;48.90;;;;;;486950;245;1153;-76
2022/05/08 05:30:16;;;;;;;;;;;21.50;48.80;;;;;;486917;245;983;-76
2022/05/08 05:32:16;;;;;;;;;;;21.60;48.70;;;;;;486768;245;1950;-76
2022/05/08 05:34:17;;;;;;;;;;;21.60;48.70;;;;;;487009;245;1073;-76
2022/05/08 05:36:18;;;;;;;;;;;21.40;49.10;;;;;;486864;245;1236;-76
2022/05/08 05:38:20;;;;;;;;;;;21.40;49.00;;;;;;486917;245;1115;-76
2022/05/08 05:40:21;;;;;;;;;;;21.50;49.10;;;;;;486796;245;1056;-76
2022/05/08 05:42:23;;;;;;;;;;;21.40;49.20;;;;;;486902;245;1119;-76
2022/05/08 05:44:24;;;;;;;;;;;21.40;49.10;;;;;;487058;245;2198;-76
2022/05/08 05:48:45;;;;;;;;;;;21.60;48.80;;;;;;486918;245;1179;-76
2022/05/08 05:50:46;;;;;;;;;;;21.50;48.80;;;;;;486946;245;1229;-76
2022/05/08 05:52:48;;;;;;;;;;;21.40;49.00;;;;;;486901;245;1209;-76
2022/05/08 05:54:49;;;;;;;;;;;21.40;49.00;;;;;;487032;245;1051;-76
2022/05/08 05:56:50;;;;;;;;;;;21.50;49.00;;;;;;486990;245;1181;-76
2022/05/08 05:58:51;;;;;;;;;;;21.50;48.70;;;;;;486973;245;1117;-76
2022/05/08 06:00:53;;;;;;;;;;;21.40;48.90;;;;;;486984;245;1091;-76
2022/05/08 06:02:54;;;;;;;;;;;21.40;49.00;;;;;;486836;245;1142;-76
2022/05/08 06:04:55;;;;;;;;;;;21.50;49.00;;;;;;486874;245;2193;-76
2022/05/08 06:06:57;;;;;;;;;;;21.40;49.10;;;;;;486927;245;1121;-76
2022/05/08 06:08:58;;;;;;;;;;;21.40;49.00;;;;;;486887;245;1108;-76
2022/05/08 06:10:59;;;;;;;;;;;21.50;49.10;;;;;;486949;243;1289;-76
2022/05/08 06:13:01;;;;;;;;;;;21.30;49.30;;;;;;486941;245;1101;-76
2022/05/08 06:15:03;;;;;;;;;;;21.50;49.00;;;;;;486936;245;948;-76
2022/05/08 06:17:03;;;;;;;;;;;21.50;49.10;;;;;;486792;245;1217;-76
2022/05/08 06:19:05;;;;;;;;;;;21.40;49.10;;;;;;486985;245;1198;-76
2022/05/08 06:21:06;;;;;;;;;;;21.40;49.20;;;;;;486908;243;1381;-76
2022/05/08 06:23:07;;;;;;;;;;;21.30;49.10;;;;;;486959;245;1049;-76
2022/05/08 06:25:09;;;;;;;;;;;21.50;49.00;;;;;;486939;245;2194;-76
2022/05/08 06:27:10;;;;;;;;;;;21.40;49.00;;;;;;487070;245;1461;-76
2022/05/08 06:29:11;;;;;;;;;;;21.30;49.20;;;;;;487154;245;1164;-76
2022/05/08 06:31:15;;;;;;;;;;;21.40;49.10;;;;;;486906;243;1164;-76
2022/05/08 06:33:14;;;;;;;;;;;21.50;49.20;;;;;;486912;245;1335;-76
2022/05/08 06:35:15;;;;;;;;;;;21.40;49.10;;;;;;486911;245;1147;-76
2022/05/08 06:37:17;;;;;;;;;;;21.60;48.90;;;;;;486976;245;1055;-76
2022/05/08 06:39:18;;;;;;;;;;;21.50;48.80;;;;;;486871;245;1114;-76
2022/05/08 06:41:20;;;;;;;;;;;21.40;49.10;;;;;;486921;245;1284;-76
2022/05/08 06:43:21;;;;;;;;;;;21.40;49.10;;;;;;486879;245;989;-76
2022/05/08 06:45:24;;;;;;;;;;;21.20;49.40;;;;;;486905;245;2166;-75
2022/05/08 06:47:24;;;;;;;;;;;21.40;49.20;;;;;;486815;245;1373;-76
2022/05/08 06:49:25;;;;;;;;;;;21.40;49.10;;;;;;486978;245;1170;-76
2022/05/08 06:51:27;;;;;;;;;;;21.40;49.00;;;;;;486954;243;1240;-76
2022/05/08 06:53:28;;;;;;;;;;;21.40;48.80;;;;;;486980;245;1072;-76
2022/05/08 06:55:29;;;;;;;;;;;21.10;49.70;;;;;;486959;245;1042;-76
2022/05/08 06:57:31;;;;;;;;;;;21.20;49.50;;;;;;486973;245;1058;-76
2022/05/08 07:01:51;;;;;;;;;;;21.30;49.10;;;;;;486919;245;1709;-76
2022/05/08 07:03:52;;;;;;;;;;;21.50;48.90;;;;;;486929;245;1117;-76
2022/05/08 07:05:55;;;;;;;;;;;21.30;49.30;;;;;;487054;245;2185;-76
2022/05/08 07:07:55;;;;;;;;;;;21.40;48.90;;;;;;486852;245;1343;-76
2022/05/08 07:09:56;;;;;;;;;;;21.30;49.10;;;;;;486895;245;1182;-76
2022/05/08 07:11:58;;;;;;;;;;;21.40;49.30;;;;;;487067;245;1078;-75
2022/05/08 07:13:59;;;;;;;;;;;21.30;49.20;;;;;;486968;245;1118;-76
2022/05/08 07:16:01;;;;;;;;;;;21.30;49.10;;;;;;486876;245;1285;-76
2022/05/08 07:18:02;;;;;;;;;;;21.40;49.00;;;;;;487017;245;1071;-76
2022/05/08 07:20:04;;;;;;;;;;;21.30;49.30;;;;;;487025;245;1217;-76
2022/05/08 07:22:05;;;;;;;;;;;21.30;49.20;;;;;;486942;245;1137;-76
2022/05/08 07:24:06;;;;;;;;;;;21.50;49.00;;;;;;486917;245;1063;-76
2022/05/08 07:26:07;;;;;;;;;;;21.50;48.90;;;;;;487165;245;2123;-76
2022/05/08 07:28:09;;;;;;;;;;;21.30;49.30;;;;;;486973;245;1127;-76
2022/05/08 07:30:10;;;;;;;;;;;21.40;49.10;;;;;;486995;245;969;-76
2022/05/08 07:32:11;;;;;;;;;;;21.50;49.00;;;;;;486870;245;1054;-76
2022/05/08 07:36:32;;;;;;;;;;;21.30;49.20;;;;;;486998;245;996;-76
2022/05/08 07:38:33;;;;;;;;;;;21.50;48.80;;;;;;486986;245;1182;-76
2022/05/08 07:40:35;;;;;;;;;;;21.40;49.00;;;;;;486982;245;971;-76
2022/05/08 07:42:36;;;;;;;;;;;21.40;49.00;;;;;;486944;245;1021;-75
2022/05/08 07:44:37;;;;;;;;;;;21.40;49.10;;;;;;486941;245;2123;-77
2022/05/08 07:46:39;;;;;;;;;;;21.30;49.40;;;;;;486868;245;1016;-76
2022/05/08 07:48:40;;;;;;;;;;;21.30;49.40;;;;;;486856;245;1000;-76
2022/05/08 07:50:41;;;;;;;;;;;21.30;49.40;;;;;;486881;245;1177;-76
2022/05/08 07:52:43;;;;;;;;;;;21.30;49.40;;;;;;486927;245;1600;-76
2022/05/08 07:54:44;;;;;;;;;;;21.40;49.20;;;;;;487042;245;1106;-76
2022/05/08 07:56:45;;;;;;;;;;;21.30;49.50;;;;;;486991;245;1070;-76
2022/05/08 07:58:47;;;;;;;;;;;21.30;49.40;;;;;;486934;245;1026;-76
2022/05/08 08:00:49;;;;;;;;;;;21.30;49.40;;;;;;486978;245;1186;-76
2022/05/08 08:02:49;;;;;;;;;;;21.30;49.50;;;;;;487175;245;1592;-76
2022/05/08 08:04:51;;;;;;;;;;;21.30;49.50;;;;;;486942;244;2194;-75
2022/05/08 08:06:52;;;;;;;;;;;21.40;49.40;;;;;;487080;245;1095;-76
2022/05/08 08:08:53;;;;;;;;;;;21.20;49.50;;;;;;486946;245;997;-76
2022/05/08 08:10:56;;;;;;;;;;;21.30;49.50;;;;;;486875;245;1243;-76
2022/05/08 08:12:56;;;;;;;;;;;21.30;49.50;;;;;;486818;245;1421;-76
2022/05/08 08:14:59;;;;;;;;;;;21.30;49.40;;;;;;486954;245;1078;-75
2022/05/08 08:16:59;;;;;;;;;;;21.20;49.60;;;;;;486692;245;1413;-76
2022/05/08 08:19:00;;;;;;;;;;;21.30;49.60;;;;;;486934;245;1046;-76
2022/05/08 08:21:01;;;;;;;;;;;21.30;49.60;;;;;;486999;245;1189;-76
2022/05/08 08:23:03;;;;;;;;;;;21.20;49.70;;;;;;486955;245;1127;-76
2022/05/08 08:25:04;;;;;;;;;;;21.30;49.30;;;;;;487115;245;2206;-76
2022/05/08 08:27:06;;;;;;;;;;;21.30;49.40;;;;;;486899;245;1071;-76
2022/05/08 08:29:07;;;;;;;;;;;21.30;49.40;;;;;;486875;245;1468;-76
2022/05/08 08:31:08;;;;;;;;;;;21.30;49.60;;;;;;486879;245;1246;-76
2022/05/08 08:33:09;;;;;;;;;;;21.40;49.30;;;;;;486923;245;1065;-76
2022/05/08 08:35:11;;;;;;;;;;;21.30;49.60;;;;;;486926;243;1147;-76
2022/05/08 08:37:12;;;;;;;;;;;21.30;49.30;;;;;;486865;245;1090;-76
2022/05/08 08:39:13;;;;;;;;;;;21.30;49.50;;;;;;487005;245;1249;-76
2022/05/08 08:41:15;;;;;;;;;;;21.30;49.30;;;;;;486930;245;1246;-76
2022/05/08 08:43:16;;;;;;;;;;;21.30;49.20;;;;;;486908;245;1190;-76
2022/05/08 08:47:43;;;;;;;;;;;21.20;49.60;;;;;;486827;245;1084;-76
2022/05/08 08:49:44;;;;;;;;;;;21.30;49.50;;;;;;487194;245;1101;-76
2022/05/08 08:51:46;;;;;;;;;;;21.20;49.60;;;;;;487114;245;1308;-76
2022/05/08 08:53:47;;;;;;;;;;;21.30;49.50;;;;;;487021;245;1174;-76
2022/05/08 08:55:49;;;;;;;;;;;21.20;49.70;;;;;;486907;245;1199;-76
2022/05/08 08:57:50;;;;;;;;;;;21.30;49.50;;;;;;486879;245;1124;-76
2022/05/08 08:59:51;;;;;;;;;;;21.20;49.60;;;;;;486942;245;937;-76
2022/05/08 09:01:53;;;;;;;;;;;21.10;49.60;;;;;;486922;245;1034;-76
2022/05/08 09:03:55;;;;;;;;;;;21.30;49.30;;;;;;486974;245;1075;-76
2022/05/08 09:05:55;;;;;;;;;;;21.30;49.30;;;;;;487094;240;2182;-76
2022/05/08 09:07:58;;;;;;;;;;;21.50;49.20;;;;;;486993;245;1076;-76
2022/05/08 09:09:58;;;;;;;;;;;21.30;49.40;;;;;;487053;245;1415;-76
2022/05/08 09:12:00;;;;;;;;;;;21.40;49.30;;;;;;486872;245;1053;-76
2022/05/08 09:14:01;;;;;;;;;;;21.30;49.50;;;;;;486928;245;1046;-76
2022/05/08 09:16:02;;;;;;;;;;;21.20;49.50;;;;;;486957;245;998;-76
2022/05/08 09:18:03;;;;;;;;;;;21.30;49.70;;;;;;486984;245;949;-76
2022/05/08 09:20:05;;;;;;;;;;;21.30;49.40;;;;;;486939;245;1052;-76
2022/05/08 09:22:06;;;;;;;;;;;21.30;49.60;;;;;;486861;245;1192;-76
2022/05/08 09:24:08;;;;;;;;;;;21.40;49.20;;;;;;486910;245;1077;-76
2022/05/08 09:26:09;;;;;;;;;;;21.40;49.30;;;;;;486895;245;2123;-76
2022/05/08 09:28:11;;;;;;;;;;;21.50;49.00;;;;;;486869;245;1065;-76
2022/05/08 09:30:12;;;;;;;;;;;21.60;48.70;;;;;;486952;245;1173;-76
2022/05/08 09:32:13;;;;;;;;;;;21.40;49.00;;;;;;487047;245;1165;-76
2022/05/08 09:34:15;;;;;;;;;;;21.50;48.80;;;;;;486866;245;1084;-76
2022/05/08 09:36:16;;;;;;;;;;;21.50;49.20;;;;;;486884;245;1133;-76
2022/05/08 09:38:17;;;;;;;;;;;21.20;49.40;;;;;;487046;245;1069;-76
2022/05/08 09:40:19;;;;;;;;;;;21.30;49.50;;;;;;486940;245;1195;-76
2022/05/08 09:42:20;;;;;;;;;;;21.20;49.60;;;;;;486818;245;1148;-76
2022/05/08 09:44:21;;;;;;;;;;;21.30;49.40;;;;;;486964;245;1178;-76
2022/05/08 09:46:23;;;;;;;;;;;21.30;49.40;;;;;;486979;245;2193;-76
2022/05/08 09:48:24;;;;;;;;;;;21.30;49.50;;;;;;487126;245;1479;-76
2022/05/08 09:50:25;;;;;;;;;;;21.40;49.30;;;;;;487074;245;1126;-76
2022/05/08 09:52:26;;;;;;;;;;;21.30;49.40;;;;;;486895;245;1158;-76
2022/05/08 09:54:28;;;;;;;;;;;21.30;49.20;;;;;;486950;245;1239;-76
2022/05/08 09:56:29;;;;;;;;;;;21.60;49.10;;;;;;487024;245;1112;-76
2022/05/08 09:58:31;;;;;;;;;;;21.60;49.00;;;;;;486912;245;1318;-76
2022/05/08 10:00:32;;;;;;;;;;;21.60;48.80;;;;;;486959;245;1117;-76
2022/05/08 10:02:33;;;;;;;;;;;21.40;49.10;;;;;;486860;245;1070;-76
2022/05/08 10:04:36;;;;;;;;;;;21.60;48.70;;;;;;486976;245;1170;-76
2022/05/08 10:06:36;;;;;;;;;;;21.50;49.10;;;;;;486815;245;2190;-76
2022/05/08 10:08:37;;;;;;;;;;;21.40;49.10;;;;;;486976;245;1320;-76
2022/05/08 10:15:17;;;;;;;;;;;21.30;49.40;;;;;;487023;245;1279;-76
2022/05/08 10:17:20;;;;;;;;;;;21.30;49.60;;;;;;486942;245;1099;-76
2022/05/08 10:19:21;;;;;;;;;;;21.30;49.60;;;;;;486856;245;1278;-76
2022/05/08 10:21:21;;;;;;;;;;;21.20;49.70;;;;;;486798;245;1413;-76
2022/05/08 10:23:23;;;;;;;;;;;21.40;49.40;;;;;;487166;245;1052;-76
2022/05/08 10:25:24;;;;;;;;;;;21.20;49.70;;;;;;486996;245;1098;-76
2022/05/08 10:27:25;;;;;;;;;;;21.20;49.60;;;;;;486945;245;2180;-76
2022/05/08 10:29:27;;;;;;;;;;;21.20;49.70;;;;;;487098;245;1075;-76
2022/05/08 10:31:30;;;;;;;;;;;21.10;49.70;;;;;;486895;245;1138;-76
2022/05/08 10:33:29;;;;;;;;;;;21.20;49.70;;;;;;486988;245;1438;-76
2022/05/08 10:35:31;;;;;;;;;;;21.20;49.60;;;;;;486915;245;1017;-76
2022/05/08 10:37:32;;;;;;;;;;;21.20;49.60;;;;;;486866;245;1107;-76
2022/05/08 10:39:33;;;;;;;;;;;21.10;49.90;;;;;;486927;245;1011;-76
2022/05/08 10:41:35;;;;;;;;;;;21.20;49.60;;;;;;486917;245;1123;-76
2022/05/08 10:43:37;;;;;;;;;;;21.30;49.50;;;;;;486907;245;1188;-76
2022/05/08 10:45:40;;;;;;;;;;;21.30;49.50;;;;;;486993;245;2198;-76
2022/05/08 10:47:40;;;;;;;;;;;21.30;49.50;;;;;;486979;245;1369;-76
2022/05/08 10:49:40;;;;;;;;;;;21.30;49.30;;;;;;486792;245;1484;-76
2022/05/08 10:51:41;;;;;;;;;;;21.30;49.50;;;;;;487121;245;1287;-76
2022/05/08 10:53:43;;;;;;;;;;;21.30;49.60;;;;;;486872;245;1145;-76
2022/05/08 10:55:44;;;;;;;;;;;21.10;49.80;;;;;;487044;245;1180;-76
2022/05/08 10:57:45;;;;;;;;;;;21.30;49.60;;;;;;487026;245;1200;-76
2022/05/08 10:59:48;;;;;;;;;;;21.20;49.70;;;;;;486909;245;1232;-76
2022/05/08 11:01:48;;;;;;;;;;;21.20;49.70;;;;;;486868;245;1429;-76
2022/05/08 11:03:49;;;;;;;;;;;21.20;49.80;;;;;;486924;245;1024;-76
2022/05/08 11:05:52;;;;;;;;;;;21.10;49.80;;;;;;486849;245;2194;-76
2022/05/08 11:07:52;;;;;;;;;;;21.20;49.70;;;;;;486977;245;1349;-76
2022/05/08 11:09:53;;;;;;;;;;;21.10;49.90;;;;;;486956;245;1003;-76
2022/05/08 11:11:55;;;;;;;;;;;21.10;49.90;;;;;;486979;245;1200;-75
2022/05/08 11:13:56;;;;;;;;;;;21.20;49.60;;;;;;486937;245;1147;-76
2022/05/08 11:15:57;;;;;;;;;;;21.10;49.70;;;;;;486974;245;1227;-76
2022/05/08 11:17:58;;;;;;;;;;;21.20;49.70;;;;;;487183;245;1042;-76
2022/05/08 11:20:00;;;;;;;;;;;21.20;49.90;;;;;;486931;245;982;-76
2022/05/08 11:22:01;;;;;;;;;;;21.30;49.60;;;;;;486883;243;1232;-76
2022/05/08 11:24:03;;;;;;;;;;;21.40;49.40;;;;;;486834;245;1136;-76
2022/05/08 11:26:05;;;;;;;;;;;21.30;49.60;;;;;;486932;245;2185;-76
2022/05/08 11:28:07;;;;;;;;;;;21.30;49.60;;;;;;486949;245;1181;-76
2022/05/08 11:30:08;;;;;;;;;;;21.40;49.30;;;;;;486963;245;1160;-76
2022/05/08 11:36:48;;;;;;;;;;;21.40;49.20;;;;;;486949;245;1319;-76
2022/05/08 11:38:50;;;;;;;;;;;21.50;49.20;;;;;;486929;245;1202;-76
2022/05/08 11:40:51;;;;;;;;;;;21.50;49.00;;;;;;486854;245;1520;-76
2022/05/08 11:42:52;;;;;;;;;;;21.40;49.30;;;;;;486878;245;1130;-76
2022/05/08 11:44:53;;;;;;;;;;;21.40;49.20;;;;;;486934;245;1047;-75
2022/05/08 11:46:55;;;;;;;;;;;21.40;49.20;;;;;;486858;245;2197;-76
2022/05/08 11:48:56;;;;;;;;;;;21.40;49.50;;;;;;487093;245;1397;-76
2022/05/08 11:50:57;;;;;;;;;;;21.20;49.60;;;;;;486972;245;1089;-76
2022/05/08 11:52:59;;;;;;;;;;;20.70;50.70;;;;;;486989;245;1152;-76
2022/05/08 11:55:00;;;;;;;;;;;20.40;51.60;;;;;;487022;245;1106;-76
2022/05/08 11:57:01;;;;;;;;;;;20.20;52.30;;;;;;486874;245;1449;-75
2022/05/08 11:59:03;;;;;;;;;;;20.10;52.60;;;;;;486961;245;988;-76
2022/05/08 12:01:04;;;;;;;;;;;20.00;52.90;;;;;;486960;245;1362;-76
2022/05/08 12:03:05;;;;;;;;;;;20.30;52.40;;;;;;486948;245;1163;-76
2022/05/08 12:05:07;;;;;;;;;;;20.40;52.00;;;;;;486957;245;998;-76
2022/05/08 12:07:08;;;;;;;;;;;20.40;51.90;;;;;;486852;245;2186;-76
2022/05/08 12:09:09;;;;;;;;;;;20.60;51.30;;;;;;486943;245;1071;-76
2022/05/08 12:11:10;;;;;;;;;;;20.60;51.30;;;;;;486935;245;1015;-76
2022/05/08 12:13:13;;;;;;;;;;;20.60;51.40;;;;;;486915;245;1263;-76
2022/05/08 12:15:13;;;;;;;;;;;20.60;51.50;;;;;;487157;245;1379;-76
2022/05/08 12:17:14;;;;;;;;;;;20.60;51.30;;;;;;486912;245;1209;-76
2022/05/08 12:19:16;;;;;;;;;;;20.60;51.60;;;;;;487089;245;1168;-76
2022/05/08 12:21:17;;;;;;;;;;;20.60;51.60;;;;;;487032;245;1157;-76
2022/05/08 12:23:19;;;;;;;;;;;20.50;51.60;;;;;;487090;245;1255;-76